Time;durP1;ratioP1;P1;durP2;ratioP2;P2;SDS_P1;SDS_P2;PMS_P1;PMS_P2;Temp;Humidity;BMP_temperature;BMP_pressure;BME280_temperature;BME280_humidity;BME280_pressure;Samples;Min_cycle;Max_cycle;Signal;HPM_P1;HPM_P2
2021/08/11 00:02:19;;;;;;;7.60;5.47;;;;;;;19.82;64.47;93102.72;2071319;69;20164;-73
2021/08/11 00:04:45;;;;;;;12.82;5.75;;;;;;;19.73;64.19;93104.56;2071528;69;20156;-73
2021/08/11 00:07:10;;;;;;;9.93;5.15;;;;;;;19.92;63.28;93102.31;2071183;69;20155;-73
2021/08/11 00:09:36;;;;;;;11.02;5.30;;;;;;;19.92;62.91;93105.88;2071247;69;20205;-73
2021/08/11 00:12:02;;;;;;;10.85;5.40;;;;;;;19.86;63.99;93102.84;2070964;69;20213;-73
2021/08/11 00:14:28;;;;;;;9.65;5.20;;;;;;;19.81;64.08;93112.69;2071118;69;20587;-72
2021/08/11 00:16:53;;;;;;;9.82;5.15;;;;;;;19.66;64.55;93108.63;2071607;69;20206;-73
2021/08/11 00:19:19;;;;;;;10.52;5.50;;;;;;;19.69;64.82;93106.56;2071179;69;20152;-74
2021/08/11 00:21:44;;;;;;;9.05;5.28;;;;;;;19.57;64.93;93109.72;2071034;69;20217;-73
2021/08/11 00:24:10;;;;;;;9.82;5.38;;;;;;;19.68;64.22;93117.25;2070981;69;20514;-73
2021/08/11 00:26:37;;;;;;;8.82;5.18;;;;;;;19.74;62.08;93120.31;2070933;69;20144;-73
2021/08/11 00:29:02;;;;;;;8.05;5.43;;;;;;;19.66;63.89;93116.47;2070696;69;20298;-73
2021/08/11 00:31:29;;;;;;;11.13;5.20;;;;;;;19.63;63.82;93114.94;2067474;69;20147;-74
2021/08/11 00:33:55;;;;;;;8.98;5.30;;;;;;;19.41;64.82;93123.44;2067688;69;20205;-74
2021/08/11 00:36:21;;;;;;;10.43;5.88;;;;;;;19.30;65.57;93120.22;2068281;69;20140;-73
2021/08/11 00:38:46;;;;;;;12.02;5.10;;;;;;;19.44;64.47;93124.97;2068085;69;20147;-74
2021/08/11 00:41:15;;;;;;;9.82;5.85;;;;;;;19.28;64.14;93122.25;2067696;69;20160;-73
2021/08/11 00:43:40;;;;;;;9.75;5.50;;;;;;;19.36;64.81;93122.56;2071071;69;20183;-74
2021/08/11 00:46:10;;;;;;;7.68;5.03;;;;;;;19.32;65.47;93130.25;2067519;69;20151;-74
2021/08/11 00:48:36;;;;;;;12.57;5.78;;;;;;;19.25;65.84;93117.88;2068062;69;20154;-73
2021/08/11 00:51:04;;;;;;;11.13;5.63;;;;;;;19.24;64.66;93114.31;2068159;69;20620;-73
2021/08/11 00:53:32;;;;;;;9.25;5.45;;;;;;;19.36;64.30;93118.97;2067661;69;20158;-74
2021/08/11 00:55:59;;;;;;;7.35;5.38;;;;;;;19.34;64.15;93118.91;2068063;69;20181;-73
2021/08/11 00:58:27;;;;;;;11.15;5.53;;;;;;;19.25;65.20;93115.03;2067772;69;20156;-73
2021/08/11 01:00:56;;;;;;;9.70;5.55;;;;;;;19.28;64.76;93111.56;2067852;69;20147;-73
2021/08/11 01:03:23;;;;;;;11.68;5.60;;;;;;;19.26;64.44;93110.78;2067834;69;20167;-73
2021/08/11 01:05:56;;;;;;;10.75;5.47;;;;;;;19.20;64.72;93104.88;2067937;69;20192;-74
2021/08/11 01:08:24;;;;;;;10.35;5.60;;;;;;;19.26;64.47;93102.22;2067318;69;20167;-74
2021/08/11 01:10:51;;;;;;;8.23;5.05;;;;;;;19.31;64.93;93109.53;2068233;69;20163;-73
2021/08/11 01:13:19;;;;;;;8.63;5.40;;;;;;;19.45;62.87;93106.44;2068132;69;20180;-74
2021/08/11 01:15:46;;;;;;;8.35;4.97;;;;;;;19.43;64.46;93112.09;2067763;69;20175;-74
2021/08/11 01:18:17;;;;;;;11.65;5.93;;;;;;;18.91;65.92;93112.41;2067397;69;20144;-75
2021/08/11 01:20:59;;;;;;;11.82;5.40;;;;;;;18.85;66.43;93122.84;2070350;69;20253;-75
2021/08/11 01:23:34;;;;;;;9.60;5.43;;;;;;;18.98;64.54;93122.66;2067565;69;20239;-75
2021/08/11 01:26:10;;;;;;;10.15;5.68;;;;;;;19.05;64.09;93118.59;2067565;69;20212;-73
2021/08/11 01:28:51;;;;;;;10.23;5.10;;;;;;;19.21;63.52;93115.63;2067256;69;20148;-73
2021/08/11 01:31:23;;;;;;;;;;;;;;;19.05;65.29;93115.03;2067529;69;20604;-74
2021/08/11 01:34:01;;;;;;;10.02;5.63;;;;;;;18.41;67.35;93125.47;2067820;69;20102;-73
2021/08/11 01:36:38;;;;;;;10.27;6.00;;;;;;;18.58;66.02;93126.81;2067766;69;20148;-73
2021/08/11 01:39:09;;;;;;;12.07;5.88;;;;;;;18.73;65.42;93129.56;2068129;69;20206;-73
2021/08/11 01:41:38;;;;;;;9.35;5.30;;;;;;;18.83;65.24;93122.78;2068160;69;20198;-73
2021/08/11 01:44:07;;;;;;;10.18;5.30;;;;;;;18.89;64.75;93123.75;2068039;69;20156;-74
2021/08/11 01:46:37;;;;;;;11.05;6.18;;;;;;;18.63;66.25;93128.44;2071420;69;20203;-74
2021/08/11 01:49:07;;;;;;;12.00;6.00;;;;;;;18.71;65.11;93129.50;2067875;69;20144;-74
2021/08/11 01:51:36;;;;;;;12.85;5.55;;;;;;;18.77;65.13;93129.00;2068283;69;20182;-74
2021/08/11 01:54:03;;;;;;;13.35;6.00;;;;;;;18.72;64.60;93130.22;2065293;69;20144;-74
2021/08/11 01:56:30;;;;;;;9.55;5.47;;;;;;;18.71;64.73;93131.63;2067898;69;20148;-73
2021/08/11 01:58:56;;;;;;;10.98;5.60;;;;;;;18.62;65.67;93126.97;2068053;69;20503;-73
2021/08/11 02:01:23;;;;;;;9.65;5.45;;;;;;;18.65;64.75;93132.09;2068153;69;20164;-74
2021/08/11 02:03:50;;;;;;;8.07;5.78;;;;;;;18.53;66.20;93132.38;2067766;69;20172;-73
2021/08/11 02:06:17;;;;;;;13.32;5.72;;;;;;;18.56;65.72;93124.63;2068155;69;20174;-73
2021/08/11 02:08:50;;;;;;;9.07;6.00;;;;;;;18.58;65.92;93118.25;2068063;69;20231;-73
2021/08/11 02:11:17;;;;;;;10.25;6.10;;;;;;;18.49;66.29;93122.94;2068239;69;20241;-74
2021/08/11 02:13:44;;;;;;;11.82;6.78;;;;;;;17.88;69.47;93124.13;2067887;69;20234;-74
2021/08/11 02:16:11;;;;;;;10.32;6.40;;;;;;;18.15;67.68;93128.75;2068173;69;20579;-75
2021/08/11 02:18:38;;;;;;;9.95;6.40;;;;;;;18.28;66.56;93121.44;2068299;69;20148;-75
2021/08/11 02:21:04;;;;;;;10.52;6.78;;;;;;;18.23;66.94;93120.50;2068512;69;20163;-75
2021/08/11 02:23:30;;;;;;;14.68;6.88;;;;;;;18.45;65.87;93129.19;2068622;69;20144;-75
2021/08/11 02:26:19;;;;;;;12.27;6.80;;;;;;;18.39;66.47;93125.38;2068426;69;20218;-72
2021/08/11 02:28:50;;;;;;;10.60;6.70;;;;;;;18.37;66.41;93122.44;2068373;69;20278;-73
2021/08/11 02:31:26;;;;;;;10.13;6.35;;;;;;;18.23;66.84;93120.50;2068174;69;20144;-73
2021/08/11 02:34:15;;;;;;;11.38;6.40;;;;;;;18.27;66.98;93132.06;2071721;69;20140;-73
2021/08/11 02:36:55;;;;;;;11.27;6.38;;;;;;;18.42;65.32;93127.66;2065404;69;20722;-73
2021/08/11 02:39:28;;;;;;;10.10;6.25;;;;;;;18.64;64.50;93129.88;2067315;69;20159;-73
2021/08/11 02:41:59;;;;;;;;;;;;;;;18.47;65.17;93129.28;2072206;69;20691;-73
2021/08/11 02:44:36;;;;;;;10.77;6.00;;;;;;;18.20;65.88;93124.69;2065509;69;20080;-72
2021/08/11 02:47:03;;;;;;;8.23;6.10;;;;;;;18.22;66.20;93121.16;2068571;69;20144;-73
2021/08/11 02:49:34;;;;;;;9.70;6.13;;;;;;;18.16;66.17;93120.94;2068378;69;20593;-74
2021/08/11 02:52:05;;;;;;;12.90;6.55;;;;;;;18.05;66.74;93119.78;2068464;69;20245;-74
2021/08/11 02:54:32;;;;;;;10.88;6.10;;;;;;;18.02;66.63;93123.97;2065330;69;20153;-74
2021/08/11 02:57:01;;;;;;;10.70;5.70;;;;;;;18.08;66.98;93117.75;2068280;69;20152;-74
2021/08/11 02:59:28;;;;;;;10.38;6.15;;;;;;;18.00;67.18;93118.88;2068689;69;20627;-73
2021/08/11 03:01:55;;;;;;;10.85;6.50;;;;;;;17.91;66.74;93119.94;2068266;69;20743;-74
2021/08/11 03:04:21;;;;;;;9.13;6.03;;;;;;;17.97;66.59;93123.06;2067570;69;20509;-74
2021/08/11 03:06:47;;;;;;;8.90;5.72;;;;;;;17.86;68.21;93121.19;2068434;69;20611;-74
2021/08/11 03:09:13;;;;;;;10.43;6.00;;;;;;;17.93;67.66;93120.06;2071967;69;20149;-74
2021/08/11 03:11:39;;;;;;;8.63;6.07;;;;;;;17.87;67.52;93124.75;2068284;69;20290;-74
2021/08/11 03:14:07;;;;;;;11.95;5.88;;;;;;;17.88;67.65;93129.81;2068358;69;20152;-74
2021/08/11 03:16:39;;;;;;;10.05;6.00;;;;;;;17.74;68.18;93121.44;2071868;69;20186;-74
2021/08/11 03:19:06;;;;;;;10.80;6.30;;;;;;;17.74;67.62;93127.13;2071772;69;20176;-74
2021/08/11 03:21:37;;;;;;;11.60;6.40;;;;;;;17.60;68.10;93123.66;2068490;69;20167;-74
2021/08/11 03:24:04;;;;;;;12.02;6.07;;;;;;;17.94;64.03;93135.75;2071858;69;20622;-74
2021/08/11 03:26:30;;;;;;;14.18;6.32;;;;;;;17.77;66.00;93125.81;2068245;69;20152;-74
2021/08/11 03:29:00;;;;;;;9.05;6.30;;;;;;;17.80;67.10;93129.47;2068267;69;20151;-75
2021/08/11 03:31:29;;;;;;;13.05;6.18;;;;;;;17.68;67.34;93143.19;2067932;69;20172;-74
2021/08/11 03:33:56;;;;;;;9.10;5.93;;;;;;;17.66;67.29;93143.84;2068239;69;20506;-74
2021/08/11 03:36:22;;;;;;;9.88;6.10;;;;;;;17.59;66.50;93130.72;2071770;69;20194;-74
2021/08/11 03:38:48;;;;;;;12.75;6.03;;;;;;;17.74;66.79;93137.78;2068556;69;20148;-74
2021/08/11 03:41:16;;;;;;;8.63;5.63;;;;;;;17.67;67.16;93148.13;2068327;69;20155;-74
2021/08/11 03:43:43;;;;;;;9.95;6.18;;;;;;;17.60;67.34;93142.84;2068252;69;20231;-74
2021/08/11 03:46:08;;;;;;;10.05;6.55;;;;;;;17.37;68.24;93144.75;2071828;69;20151;-74
2021/08/11 03:48:34;;;;;;;12.32;6.07;;;;;;;17.53;67.37;93136.16;2065353;69;20196;-74
2021/08/11 03:51:00;;;;;;;9.68;5.55;;;;;;;17.54;66.07;93144.03;2071634;69;20607;-74
2021/08/11 03:53:25;;;;;;;11.10;6.25;;;;;;;17.56;66.90;93140.56;2071695;69;20523;-74
2021/08/11 03:55:51;;;;;;;11.93;6.60;;;;;;;17.09;70.61;93152.06;2068333;69;20144;-74
2021/08/11 03:58:16;;;;;;;11.80;6.82;;;;;;;17.52;66.29;93143.25;2068337;69;20182;-74
2021/08/11 04:00:44;;;;;;;9.32;6.50;;;;;;;17.63;67.30;93142.28;2068262;69;20152;-74
2021/08/11 04:03:10;;;;;;;13.27;7.00;;;;;;;16.94;70.97;93140.06;2071595;69;20596;-74
2021/08/11 04:05:35;;;;;;;8.65;6.28;;;;;;;17.29;69.27;93135.88;2071815;69;20213;-74
2021/08/11 04:08:01;;;;;;;13.55;6.40;;;;;;;17.35;69.08;93136.13;2071980;69;20214;-74
2021/08/11 04:10:26;;;;;;;11.13;6.70;;;;;;;17.41;68.24;93141.34;2071610;69;20176;-74
2021/08/11 04:12:52;;;;;;;11.02;6.35;;;;;;;17.50;68.16;93126.81;2071500;69;20221;-74
2021/08/11 04:15:17;;;;;;;9.68;6.28;;;;;;;17.24;69.42;93152.03;2071803;69;20156;-74
2021/08/11 04:17:43;;;;;;;13.18;6.68;;;;;;;16.88;69.52;93144.75;2071511;69;20207;-74
2021/08/11 04:20:09;;;;;;;13.60;6.53;;;;;;;17.52;66.57;93146.09;2071871;69;20155;-74
2021/08/11 04:22:35;;;;;;;13.25;6.15;;;;;;;17.18;69.79;93151.78;2071812;69;20160;-74
2021/08/11 04:25:00;;;;;;;11.73;6.55;;;;;;;17.31;68.79;93152.28;2071572;69;20211;-74
2021/08/11 04:27:26;;;;;;;11.43;6.20;;;;;;;17.36;67.35;93153.94;2071432;69;20171;-74
2021/08/11 04:29:52;;;;;;;13.18;6.38;;;;;;;17.47;67.29;93147.31;2071511;69;20627;-74
2021/08/11 04:32:17;;;;;;;14.13;7.03;;;;;;;17.43;67.91;93147.13;2071150;69;20164;-74
2021/08/11 04:34:45;;;;;;;15.05;6.88;;;;;;;17.61;66.59;93152.88;2071651;69;20515;-74
2021/08/11 04:37:10;;;;;;;15.80;6.68;;;;;;;17.44;68.00;93145.75;2071590;69;20167;-74
2021/08/11 04:39:36;;;;;;;14.27;6.75;;;;;;;17.54;67.15;93144.03;2071578;69;20145;-74
2021/08/11 04:42:02;;;;;;;12.70;7.00;;;;;;;17.43;68.54;93147.84;2071418;69;20160;-74
2021/08/11 04:44:27;;;;;;;12.07;6.78;;;;;;;17.38;68.77;93156.88;2071478;69;20591;-74
2021/08/11 04:46:53;;;;;;;8.90;6.15;;;;;;;17.49;68.70;93153.78;2071568;69;20180;-74
2021/08/11 04:49:18;;;;;;;12.73;6.50;;;;;;;17.58;67.99;93154.16;2068007;69;20159;-74
2021/08/11 04:51:44;;;;;;;12.63;6.97;;;;;;;17.51;68.88;93153.91;2071580;69;20594;-74
2021/08/11 04:54:09;;;;;;;10.70;6.90;;;;;;;17.57;68.24;93155.53;2071653;69;20216;-74
2021/08/11 04:56:35;;;;;;;9.90;6.38;;;;;;;17.55;68.59;93159.03;2071346;69;20648;-74
2021/08/11 04:59:00;;;;;;;9.57;6.38;;;;;;;17.73;66.59;93161.88;2071764;69;20160;-74
2021/08/11 05:01:26;;;;;;;11.63;6.30;;;;;;;17.81;67.58;93167.22;2071341;69;20241;-73
2021/08/11 05:03:51;;;;;;;10.82;5.97;;;;;;;17.88;67.58;93163.25;2071370;69;20172;-74
2021/08/11 05:06:17;;;;;;;11.20;6.35;;;;;;;17.60;69.41;93159.94;2071532;69;20156;-74
2021/08/11 05:08:43;;;;;;;9.55;6.40;;;;;;;17.57;68.82;93159.13;2071657;69;20232;-74
2021/08/11 05:11:08;;;;;;;12.60;6.35;;;;;;;17.68;68.17;93155.28;2071504;69;20182;-74
2021/08/11 05:13:34;;;;;;;8.73;6.30;;;;;;;17.81;67.40;93153.72;2071445;69;20145;-74
2021/08/11 05:16:00;;;;;;;10.00;6.30;;;;;;;17.62;68.68;93155.06;2071515;69;20242;-74
2021/08/11 05:18:25;;;;;;;10.32;6.78;;;;;;;17.61;69.03;93162.13;2071300;69;20601;-74
2021/08/11 05:20:55;;;;;;;9.35;6.28;;;;;;;17.73;68.61;93164.75;2071787;69;20612;-74
2021/08/11 05:23:20;;;;;;;11.40;6.50;;;;;;;17.45;70.73;93167.13;2071401;69;20235;-74
2021/08/11 05:25:47;;;;;;;14.23;7.15;;;;;;;16.63;74.96;93166.38;2071666;69;20495;-74
2021/08/11 05:28:12;;;;;;;10.75;6.55;;;;;;;17.36;70.74;93171.00;2071305;69;20160;-73
2021/08/11 05:30:42;;;;;;;10.63;6.38;;;;;;;17.62;68.84;93171.41;2071468;69;20156;-73
2021/08/11 05:33:07;;;;;;;13.90;6.85;;;;;;;17.65;69.01;93165.16;2070177;69;20141;-74
2021/08/11 05:35:33;;;;;;;14.13;6.75;;;;;;;17.59;69.63;93164.88;2068222;69;20153;-74
2021/08/11 05:37:58;;;;;;;10.15;6.82;;;;;;;17.71;68.38;93171.09;2070410;69;20227;-74
2021/08/11 05:40:24;;;;;;;11.15;6.68;;;;;;;17.70;69.72;93177.44;2071375;69;20196;-75
2021/08/11 05:42:50;;;;;;;11.68;6.43;;;;;;;17.76;68.92;93167.06;2071357;69;20148;-75
2021/08/11 05:45:15;;;;;;;10.45;6.53;;;;;;;17.61;70.44;93175.63;2071431;69;20151;-75
2021/08/11 05:47:41;;;;;;;11.60;6.93;;;;;;;17.39;71.20;93176.13;2071385;69;20156;-75
2021/08/11 05:50:08;;;;;;;13.00;6.80;;;;;;;17.87;68.44;93182.47;2071703;69;20156;-75
2021/08/11 05:52:34;;;;;;;12.20;6.65;;;;;;;18.03;68.65;93176.69;2071418;69;20164;-74
2021/08/11 05:54:59;;;;;;;10.68;6.38;;;;;;;18.15;67.47;93176.47;2071304;69;20171;-74
2021/08/11 05:57:25;;;;;;;11.63;6.45;;;;;;;18.04;67.86;93164.63;2071701;69;20174;-74
2021/08/11 05:59:50;;;;;;;10.07;6.25;;;;;;;18.02;67.24;93167.41;2071897;69;20197;-76
2021/08/11 06:02:16;;;;;;;12.38;6.47;;;;;;;18.11;67.19;93167.75;2070583;69;20164;-75
2021/08/11 06:04:52;;;;;;;13.15;6.90;;;;;;;17.71;69.83;93173.22;2067856;69;20219;-71
2021/08/11 06:07:19;;;;;;;12.82;6.43;;;;;;;18.03;69.09;93168.16;2070377;69;20143;-72
2021/08/11 06:09:45;;;;;;;10.73;6.60;;;;;;;18.09;69.59;93164.81;2070081;69;20140;-72
2021/08/11 06:12:10;;;;;;;11.38;6.43;;;;;;;18.16;69.83;93166.53;2071604;69;20496;-72
2021/08/11 06:14:36;;;;;;;11.63;5.93;;;;;;;18.39;68.29;93174.56;2071545;69;20190;-72
2021/08/11 06:17:02;;;;;;;10.88;6.78;;;;;;;18.38;68.66;93164.56;2069204;69;20167;-73
2021/08/11 06:19:28;;;;;;;11.52;6.70;;;;;;;18.42;68.89;93178.25;2071648;69;20518;-73
2021/08/11 06:21:53;;;;;;;9.88;6.75;;;;;;;18.34;68.75;93177.94;2071741;69;20632;-73
2021/08/11 06:24:19;;;;;;;12.13;6.75;;;;;;;18.45;67.36;93180.50;2071919;69;20668;-73
2021/08/11 06:26:44;;;;;;;12.60;7.53;;;;;;;18.27;69.55;93185.47;2071692;69;20148;-73
2021/08/11 06:29:10;;;;;;;12.40;7.07;;;;;;;18.48;68.51;93196.31;2071117;69;20658;-73
2021/08/11 06:31:36;;;;;;;15.77;7.07;;;;;;;18.69;67.17;93217.09;2071508;69;20183;-74
2021/08/11 06:34:01;;;;;;;17.95;6.45;;;;;;;18.69;67.06;93219.94;2071488;69;20239;-75
2021/08/11 06:36:27;;;;;;;12.93;7.32;;;;;;;18.69;68.46;93217.84;2071889;69;20221;-74
2021/08/11 06:38:53;;;;;;;11.15;7.03;;;;;;;18.75;67.33;93234.44;2071614;69;20151;-74
2021/08/11 06:41:19;;;;;;;11.82;6.47;;;;;;;18.75;65.36;93237.31;2072145;69;20148;-74
2021/08/11 06:43:57;;;;;;;11.43;6.97;;;;;;;18.84;64.89;93241.94;2068405;69;20164;-74
2021/08/11 06:46:23;;;;;;;11.90;7.10;;;;;;;18.89;65.15;93243.56;2066757;69;20171;-73
2021/08/11 06:48:50;;;;;;;10.48;6.38;;;;;;;18.89;63.66;93240.69;2066726;69;20141;-73
2021/08/11 06:51:17;;;;;;;11.43;6.35;;;;;;;18.97;63.05;93229.59;2071521;69;20242;-73
2021/08/11 06:53:43;;;;;;;9.20;6.00;;;;;;;18.78;65.42;93228.16;2071852;69;20592;-74
2021/08/11 06:56:09;;;;;;;11.18;6.60;;;;;;;18.95;67.18;93228.78;2071311;69;20140;-74
2021/08/11 06:58:36;;;;;;;13.93;7.63;;;;;;;18.84;67.95;93224.09;2071576;69;20216;-73
2021/08/11 07:01:02;;;;;;;11.55;7.10;;;;;;;18.61;68.62;93220.34;2071767;69;20179;-73
2021/08/11 07:03:27;;;;;;;12.13;6.88;;;;;;;19.09;66.15;93214.31;2071113;69;20183;-73
2021/08/11 07:05:53;;;;;;;9.32;6.93;;;;;;;19.09;68.53;93215.03;2070229;69;20334;-73
2021/08/11 07:08:20;;;;;;;10.32;6.45;;;;;;;19.23;61.67;93209.88;2070200;69;20152;-74
2021/08/11 07:10:47;;;;;;;9.60;6.35;;;;;;;19.36;65.05;93210.31;2071079;69;20217;-74
2021/08/11 07:13:12;;;;;;;11.35;6.70;;;;;;;19.49;61.88;93206.50;2071666;69;20163;-73
2021/08/11 07:15:38;;;;;;;13.00;6.93;;;;;;;19.52;63.25;93208.78;2071595;69;20227;-73
2021/08/11 07:18:04;;;;;;;9.25;6.47;;;;;;;19.62;66.42;93205.59;2071465;69;20178;-74
2021/08/11 07:20:31;;;;;;;11.40;6.38;;;;;;;19.69;63.40;93209.38;2071608;69;20144;-73
2021/08/11 07:22:58;;;;;;;10.98;6.55;;;;;;;19.20;68.29;93208.34;2071668;69;20223;-73
2021/08/11 07:25:27;;;;;;;12.80;6.28;;;;;;;19.27;66.39;93200.72;2071732;69;20171;-74
2021/08/11 07:27:54;;;;;;;11.93;6.88;;;;;;;19.51;62.88;93200.84;2071889;69;20152;-74
2021/08/11 07:30:20;;;;;;;13.40;6.70;;;;;;;19.60;64.09;93190.47;2071882;69;20594;-73
2021/08/11 07:32:46;;;;;;;12.40;6.25;;;;;;;19.72;65.63;93185.94;2071430;69;20148;-74
2021/08/11 07:35:13;;;;;;;9.27;6.43;;;;;;;20.14;68.35;93177.34;2071727;69;20171;-73
2021/08/11 07:37:50;;;;;;;8.40;6.05;;;;;;;20.35;64.72;93178.72;2071803;69;20155;-74
2021/08/11 07:40:17;;;;;;;8.45;6.35;;;;;;;20.69;64.89;93166.94;2071395;69;20225;-75
2021/08/11 07:42:43;;;;;;;9.95;6.47;;;;;;;21.09;63.06;93164.56;2071699;69;20152;-74
2021/08/11 07:45:11;;;;;;;10.00;6.65;;;;;;;21.25;61.17;93164.28;2071635;69;20321;-75
2021/08/11 07:47:36;;;;;;;9.32;6.10;;;;;;;21.27;61.67;93170.09;2071506;69;20203;-75
2021/08/11 07:50:03;;;;;;;9.13;6.03;;;;;;;21.78;60.02;93162.91;2071868;69;20151;-76
2021/08/11 07:52:29;;;;;;;8.52;5.70;;;;;;;21.78;59.70;93169.34;2071598;69;20148;-75
2021/08/11 07:54:55;;;;;;;9.65;6.15;;;;;;;22.10;58.32;93165.88;2073921;69;20163;-79
2021/08/11 07:57:21;;;;;;;7.93;6.20;;;;;;;21.67;57.65;93176.25;2076261;69;20207;-77
2021/08/11 07:59:46;;;;;;;10.20;6.40;;;;;;;22.19;59.55;93181.91;2072574;69;20156;-75
2021/08/11 08:02:13;;;;;;;11.32;5.93;;;;;;;22.46;58.99;93176.81;2068333;69;20610;-76
2021/08/11 08:04:43;;;;;;;14.48;6.47;;;;;;;22.46;57.68;93189.03;2071593;69;20176;-75
2021/08/11 08:07:08;;;;;;;8.13;6.07;;;;;;;22.88;58.05;93199.31;2071891;69;20164;-75
2021/08/11 08:09:34;;;;;;;11.57;5.90;;;;;;;23.03;55.68;93204.00;2071538;69;20186;-76
2021/08/11 08:12:00;;;;;;;8.52;5.97;;;;;;;22.83;55.10;93209.97;2072394;69;20514;-76
2021/08/11 08:14:26;;;;;;;7.95;6.40;;;;;;;22.57;56.41;93219.41;2070914;69;20192;-74
2021/08/11 08:16:52;;;;;;;9.52;6.28;;;;;;;22.48;56.18;93225.63;2071668;69;20166;-75
2021/08/11 08:19:18;;;;;;;16.20;6.90;;;;;;;22.82;55.91;93225.75;2071346;69;20148;-74
2021/08/11 08:21:43;;;;;;;12.05;6.70;;;;;;;22.43;57.08;93221.94;2071486;69;20147;-74
2021/08/11 08:24:10;;;;;;;10.38;6.82;;;;;;;23.23;57.71;93212.31;2071331;69;20604;-75
2021/08/11 08:26:36;;;;;;;8.30;5.90;;;;;;;23.66;56.28;93204.63;2071391;69;20143;-75
2021/08/11 08:29:03;;;;;;;9.48;6.25;;;;;;;23.96;54.72;93196.59;2071509;69;20518;-76
2021/08/11 08:31:28;;;;;;;11.43;6.72;;;;;;;24.38;54.82;93198.81;2071386;69;20148;-76
2021/08/11 08:33:54;;;;;;;12.82;6.10;;;;;;;24.23;53.12;93199.94;2071359;69;20211;-74
2021/08/11 08:36:20;;;;;;;7.20;5.97;;;;;;;24.25;51.99;93188.47;2071461;69;20503;-77
2021/08/11 08:38:45;;;;;;;7.82;5.95;;;;;;;24.44;51.42;93192.41;2070262;69;20202;-75
2021/08/11 08:41:12;;;;;;;10.98;5.53;;;;;;;24.26;52.32;93196.41;2071741;69;20235;-76
2021/08/11 08:43:38;;;;;;;9.75;6.03;;;;;;;24.29;54.61;93191.44;2071166;69;20155;-76
2021/08/11 08:46:04;;;;;;;7.57;5.78;;;;;;;23.58;53.33;93193.66;2071711;69;20199;-75
2021/08/11 08:48:32;;;;;;;7.95;6.13;;;;;;;23.48;54.76;93184.84;2068822;69;20148;-75
2021/08/11 08:50:58;;;;;;;13.23;6.32;;;;;;;24.12;53.77;93189.69;2071517;69;20619;-76
2021/08/11 08:53:24;;;;;;;8.60;5.97;;;;;;;24.52;53.98;93193.28;2071131;69;20140;-76
2021/08/11 08:55:51;;;;;;;10.05;6.32;;;;;;;23.96;51.77;93198.72;2071765;69;20697;-77
2021/08/11 08:58:18;;;;;;;9.82;6.10;;;;;;;23.89;52.00;93191.41;2071608;69;20132;-75
2021/08/11 09:00:44;;;;;;;10.35;6.05;;;;;;;24.81;51.32;93187.97;2071336;69;20287;-75
2021/08/11 09:03:10;;;;;;;10.85;6.00;;;;;;;25.17;50.63;93187.81;2071380;69;20159;-74
2021/08/11 09:05:35;;;;;;;6.80;5.57;;;;;;;25.90;51.77;93184.44;2071484;69;20136;-75
2021/08/11 09:08:01;;;;;;;7.78;5.72;;;;;;;25.99;49.75;93183.09;2071298;69;20159;-78
2021/08/11 09:10:30;;;;;;;7.97;5.72;;;;;;;26.23;48.37;93177.56;2071567;69;20180;-77
2021/08/11 09:12:59;;;;;;;7.70;5.68;;;;;;;26.87;48.04;93175.97;2068080;69;20160;-75
2021/08/11 09:15:39;;;;;;;8.02;5.50;;;;;;;26.54;45.59;93181.47;2071168;69;20720;-79
2021/08/11 09:18:17;;;;;;;6.70;5.72;;;;;;;27.19;43.70;93174.75;2070224;69;20148;-79
2021/08/11 09:21:10;;;;;;;7.50;5.85;;;;;;;27.24;45.10;93176.22;2068055;69;20175;-77
2021/08/11 09:23:38;;;;;;;8.75;5.72;;;;;;;27.23;43.23;93169.72;2071649;69;20312;-77
2021/08/11 09:26:07;;;;;;;7.35;5.70;;;;;;;27.39;41.00;93159.69;2071435;69;20160;-78
2021/08/11 09:28:35;;;;;;;6.95;5.40;;;;;;;27.72;42.60;93170.00;2071414;69;20608;-77
2021/08/11 09:31:30;;;;;;;7.55;4.82;;;;;;;27.87;39.38;93156.31;2071220;69;20141;-80
2021/08/11 09:34:01;;;;;;;5.78;5.15;;;;;;;27.66;40.21;93161.25;2071354;69;20170;-79
2021/08/11 09:36:27;;;;;;;5.88;4.97;;;;;;;28.28;40.87;93157.13;2071492;69;20187;-77
2021/08/11 09:38:59;;;;;;;10.60;5.28;;;;;;;28.49;39.02;93162.94;2071400;69;20167;-75
2021/08/11 09:41:25;;;;;;;7.38;4.93;;;;;;;28.12;40.50;93157.09;2071631;69;20174;-77
2021/08/11 09:44:04;;;;;;;7.90;5.10;;;;;;;29.15;40.08;93160.78;2073000;69;20595;-75
2021/08/11 09:46:30;;;;;;;6.03;5.30;;;;;;;29.22;39.04;93160.03;2073837;69;20179;-75
2021/08/11 09:48:57;;;;;;;5.50;4.70;;;;;;;29.91;39.67;93164.19;2070437;69;20159;-75
2021/08/11 09:51:22;;;;;;;6.80;5.18;;;;;;;30.21;38.12;93154.63;2071002;69;20184;-75
2021/08/11 09:53:48;;;;;;;6.97;5.53;;;;;;;29.75;37.04;93156.28;2070851;69;20286;-74
2021/08/11 09:56:14;;;;;;;6.97;4.63;;;;;;;29.84;38.19;93149.00;2070902;69;20270;-77
2021/08/11 09:58:45;;;;;;;5.85;4.85;;;;;;;30.42;39.34;93150.13;2070814;69;20514;-75
2021/08/11 10:01:14;;;;;;;8.20;4.93;;;;;;;30.22;36.28;93156.78;2071454;69;20160;-83
2021/08/11 10:03:56;;;;;;;8.15;4.85;;;;;;;29.89;39.41;93150.44;2071398;69;20185;-75
2021/08/11 10:06:29;;;;;;;7.37;5.27;;;;;;;30.48;36.60;93143.56;2071566;69;20315;-76
2021/08/11 10:09:21;;;;;;;7.25;5.47;;;;;;;29.92;37.09;93148.97;2071211;69;20160;-74
2021/08/11 10:11:52;;;;;;;6.43;5.15;;;;;;;29.86;39.27;93146.78;2071316;69;20141;-75
2021/08/11 10:14:23;;;;;;;6.07;5.22;;;;;;;30.94;35.94;93136.69;2071624;69;20156;-75
2021/08/11 10:16:51;;;;;;;7.25;4.75;;;;;;;31.61;33.27;93138.94;2071216;69;20144;-75
2021/08/11 10:19:19;;;;;;;5.57;4.78;;;;;;;31.37;33.21;93136.28;2071019;69;20144;-75
2021/08/11 10:21:49;;;;;;;8.43;4.63;;;;;;;32.17;34.26;93136.06;2071406;69;20164;-77
2021/08/11 10:24:16;;;;;;;8.10;4.70;;;;;;;32.09;32.10;93136.91;2067867;69;20278;-79
2021/08/11 10:26:42;;;;;;;5.25;4.75;;;;;;;31.60;33.96;93134.56;2071080;69;20221;-75
2021/08/11 10:29:09;;;;;;;7.25;4.78;;;;;;;32.54;32.73;93130.47;2070447;69;20238;-76
2021/08/11 10:31:35;;;;;;;13.18;5.15;;;;;;;32.91;33.81;93132.09;2071371;69;20256;-76
2021/08/11 10:34:02;;;;;;;6.85;4.97;;;;;;;31.52;35.46;93125.94;2071311;69;20240;-76
2021/08/11 10:36:31;;;;;;;6.72;4.88;;;;;;;32.03;33.46;93134.06;2071358;69;20156;-77
2021/08/11 10:38:59;;;;;;;5.38;4.88;;;;;;;31.27;34.08;93121.84;2071695;69;20159;-75
2021/08/11 10:41:30;;;;;;;8.00;4.50;;;;;;;32.61;32.90;93131.78;2071839;69;20178;-74
2021/08/11 10:43:57;;;;;;;6.15;4.97;;;;;;;32.45;33.59;93131.34;2071912;69;20140;-75
2021/08/11 10:46:37;;;;;;;9.30;4.80;;;;;;;33.51;32.46;93135.44;2071958;69;20148;-74
2021/08/11 10:49:05;;;;;;;6.38;4.88;;;;;;;33.94;30.54;93128.72;2071849;69;20231;-75
2021/08/11 10:51:46;;;;;;;7.50;4.47;;;;;;;33.63;31.37;93132.25;2071704;69;20180;-75
2021/08/11 10:54:12;;;;;;;5.20;4.53;;;;;;;34.89;29.34;93120.75;2071711;69;20223;-75
2021/08/11 10:56:48;;;;;;;7.28;4.40;;;;;;;35.62;28.79;93111.63;2071891;69;20144;-79
2021/08/11 10:59:28;;;;;;;5.88;4.38;;;;;;;37.15;27.32;93116.53;2072000;69;20239;-75
2021/08/11 11:01:55;;;;;;;7.10;4.22;;;;;;;37.68;27.07;93116.22;2072012;69;20129;-73
2021/08/11 11:04:46;;;;;;;6.15;4.00;;;;;;;38.34;26.30;93121.88;2071899;69;20148;-73
2021/08/11 11:07:16;;;;;;;7.03;4.35;;;;;;;38.66;24.11;93116.25;2068633;69;20222;-74
2021/08/11 11:09:47;;;;;;;4.70;3.88;;;;;;;41.62;22.39;93121.44;2069244;69;20152;-74
2021/08/11 11:12:16;;;;;;;6.43;3.95;;;;;;;42.89;20.86;93129.53;2071730;69;20148;-76
2021/08/11 11:14:50;;;;;;;5.55;4.28;;;;;;;43.62;21.15;93128.34;2071460;69;21688;-75
2021/08/11 11:17:37;;;;;;;8.77;3.70;;;;;;;42.43;20.82;93109.88;2071810;69;20151;-75
2021/08/11 11:20:03;;;;;;;5.57;3.83;;;;;;;42.56;20.72;93115.81;2071691;69;20160;-75
2021/08/11 11:22:40;;;;;;;4.80;3.53;;;;;;;43.85;20.72;93112.19;2072283;69;20144;-79
2021/08/11 11:25:08;;;;;;;5.13;3.67;;;;;;;45.68;18.80;93111.00;2071768;69;20283;-76
2021/08/11 11:27:43;;;;;;;5.90;3.65;;;;;;;46.77;16.08;93119.84;2068344;69;20151;-75
2021/08/11 11:30:13;;;;;;;7.18;3.53;;;;;;;47.15;17.29;93109.69;2071709;69;20148;-78
2021/08/11 11:32:39;;;;;;;3.80;3.40;;;;;;;46.58;17.62;93090.69;2071629;69;20243;-75
2021/08/11 11:35:18;;;;;;;4.85;3.40;;;;;;;48.89;15.37;93106.09;2071594;69;20160;-75